createdAt,value
2019-05-16T00:00:00.707Z,16.07
2019-05-16T00:02:44.242Z,22.10
2019-05-16T00:05:21.156Z,14.90
2019-05-16T00:07:59.048Z,17.70
2019-05-16T00:10:29.095Z,15.60
2019-05-16T00:13:08.366Z,14.87
2019-05-16T00:15:43.681Z,13.60
2019-05-16T00:18:13.197Z,17.85
2019-05-16T00:20:49.709Z,18.20
2019-05-16T00:23:26.055Z,15.48
2019-05-16T00:25:55.518Z,16.65
2019-05-16T00:28:31.347Z,16.32
2019-05-16T00:31:00.810Z,17.65
2019-05-16T00:33:38.007Z,16.50
2019-05-16T00:36:09.153Z,18.75
2019-05-16T00:38:45.834Z,13.70
2019-05-16T00:41:17.762Z,14.47
2019-05-16T00:43:53.067Z,15.72
2019-05-16T00:46:35.669Z,16.57
2019-05-16T00:49:12.359Z,17.07
2019-05-16T00:51:48.152Z,17.57
2019-05-16T00:54:23.882Z,12.13
2019-05-16T00:56:53.841Z,13.40
2019-05-16T00:59:31.278Z,21.35
2019-05-16T01:02:08.994Z,13.70
2019-05-16T01:04:45.065Z,16.42
2019-05-16T01:07:20.816Z,11.18
2019-05-16T01:09:50.279Z,18.23
2019-05-16T01:12:28.220Z,17.37
2019-05-16T01:15:03.816Z,12.73
2019-05-16T01:17:33.270Z,16.27
2019-05-16T01:20:09.338Z,16.12
2019-05-16T01:22:38.861Z,13.85
2019-05-16T01:25:14.867Z,13.45
2019-05-16T01:27:50.385Z,13.18
2019-05-16T01:30:20.068Z,14.00
2019-05-16T01:32:58.139Z,12.80
2019-05-16T01:35:27.850Z,13.53
2019-05-16T01:38:03.739Z,14.25
2019-05-16T01:40:33.189Z,15.28
2019-05-16T01:43:08.972Z,15.90
2019-05-16T01:45:45.281Z,16.02
2019-05-16T01:48:29.166Z,14.30
2019-05-16T01:51:07.624Z,12.05
2019-05-16T01:53:44.078Z,13.78
2019-05-16T01:56:13.525Z,18.45
2019-05-16T01:58:50.695Z,18.42
2019-05-16T02:01:20.152Z,15.08
2019-05-16T02:04:01.955Z,13.05
2019-05-16T02:06:31.555Z,16.35
2019-05-16T02:09:08.119Z,16.37
2019-05-16T02:11:39.060Z,13.25
2019-05-16T02:14:09.500Z,17.20
2019-05-16T02:16:47.739Z,14.25
2019-05-16T02:19:24.344Z,15.58
2019-05-16T02:21:53.858Z,16.90
2019-05-16T02:24:30.302Z,10.85
2019-05-16T02:27:09.367Z,13.45
2019-05-16T02:29:39.969Z,12.53
2019-05-16T02:32:14.989Z,12.58
2019-05-16T02:34:44.513Z,19.07
2019-05-16T02:37:29.109Z,12.50
2019-05-16T02:39:54.588Z,15.72
2019-05-16T02:42:31.188Z,12.13
2019-05-16T02:45:02.421Z,14.83
2019-05-16T02:47:41.986Z,14.70
2019-05-16T02:50:12.174Z,11.90
2019-05-16T02:52:51.732Z,14.47
2019-05-16T02:55:21.758Z,11.93
2019-05-16T02:58:00.767Z,9.28
2019-05-16T03:00:44.960Z,12.78
2019-05-16T03:03:27.659Z,14.63
2019-05-16T03:06:04.790Z,20.43
2019-05-16T03:08:41.704Z,10.70
2019-05-16T03:11:12.029Z,21.80
2019-05-16T03:13:51.949Z,15.83
2019-05-16T03:16:23.012Z,13.83
2019-05-16T03:19:01.348Z,14.85
2019-05-16T03:21:33.930Z,18.17
2019-05-16T03:24:11.401Z,13.70
2019-05-16T03:26:51.264Z,15.28
2019-05-16T03:29:21.898Z,19.95
2019-05-16T03:31:57.034Z,17.23
2019-05-16T03:34:34.420Z,12.45
2019-05-16T03:37:14.378Z,13.08
2019-05-16T03:39:41.225Z,12.35
2019-05-16T03:42:20.477Z,15.83
2019-05-16T03:44:55.539Z,9.68
2019-05-16T03:47:31.666Z,16.50
2019-05-16T03:50:14.737Z,16.10
2019-05-16T03:52:44.183Z,17.67
2019-05-16T03:55:21.426Z,15.00
2019-05-16T03:57:51.742Z,18.17
2019-05-16T04:00:52.326Z,15.93
2019-05-16T04:03:32.045Z,11.35
2019-05-16T04:06:01.120Z,15.23
2019-05-16T04:08:37.596Z,14.47
2019-05-16T04:11:07.075Z,14.95
2019-05-16T04:13:43.009Z,11.55
2019-05-16T04:16:12.521Z,15.93
2019-05-16T04:18:51.409Z,14.68
2019-05-16T04:21:21.802Z,17.62
2019-05-16T04:24:01.010Z,17.25
2019-05-16T04:26:30.923Z,16.82
2019-05-16T04:29:06.896Z,14.53
2019-05-16T04:31:36.375Z,15.83
2019-05-16T04:34:26.525Z,14.50
2019-05-16T04:37:11.468Z,15.85
2019-05-16T04:39:50.492Z,14.55
2019-05-16T04:42:21.299Z,14.98
2019-05-16T04:44:56.280Z,14.60
2019-05-16T04:47:25.746Z,13.80
2019-05-16T04:50:11.381Z,16.40
2019-05-16T04:52:41.798Z,12.23
2019-05-16T04:55:21.063Z,12.80
2019-05-16T04:57:51.208Z,10.75
2019-05-16T05:00:31.629Z,11.50
2019-05-16T05:03:06.205Z,15.45
2019-05-16T05:05:42.819Z,17.48
2019-05-16T05:08:25.509Z,12.60
2019-05-16T05:11:01.698Z,14.65
2019-05-16T05:13:37.171Z,10.38
2019-05-16T05:16:13.332Z,13.98
2019-05-16T05:18:51.433Z,11.30
2019-05-16T05:21:26.673Z,13.18
2019-05-16T05:24:02.244Z,14.38
2019-05-16T05:26:31.706Z,14.50
2019-05-16T05:29:10.216Z,13.80
2019-05-16T05:31:44.812Z,15.15
2019-05-16T05:34:16.871Z,11.33
2019-05-16T05:36:52.796Z,14.23
2019-05-16T05:39:30.316Z,15.28
2019-05-16T05:42:00.168Z,11.95
2019-05-16T05:44:36.079Z,14.35
2019-05-16T05:47:12.011Z,12.18
2019-05-16T05:50:00.871Z,12.30
2019-05-16T05:52:30.576Z,9.55
2019-05-16T05:55:06.730Z,10.90
2019-05-16T05:57:36.252Z,10.50
2019-05-16T06:00:14.827Z,13.18
2019-05-16T06:02:44.295Z,14.78
2019-05-16T06:05:21.207Z,11.08
2019-05-16T06:07:51.084Z,10.98
2019-05-16T06:10:27.608Z,10.60
2019-05-16T06:12:57.068Z,15.65
2019-05-16T06:15:33.929Z,13.75
2019-05-16T06:18:03.392Z,10.48
2019-05-16T06:20:45.831Z,20.05
2019-05-16T06:23:15.297Z,19.17
2019-05-16T06:25:44.763Z,13.15
2019-05-16T06:28:21.297Z,15.13
2019-05-16T06:30:57.854Z,16.40
2019-05-16T06:33:33.826Z,13.38
2019-05-16T06:36:03.365Z,18.73
2019-05-16T06:38:40.534Z,12.10
2019-05-16T06:41:10.798Z,14.60
2019-05-16T06:43:46.948Z,13.72
2019-05-16T06:46:16.404Z,11.50
2019-05-16T06:48:45.867Z,12.43
2019-05-16T06:51:22.490Z,14.25
2019-05-16T06:54:05.344Z,13.85
2019-05-16T06:56:41.933Z,14.43
2019-05-16T06:59:11.444Z,14.45
2019-05-16T07:01:41.094Z,18.35
2019-05-16T07:04:24.341Z,17.23
2019-05-16T07:07:03.100Z,15.60
2019-05-16T07:09:56.109Z,13.53
2019-05-16T07:12:12.007Z,13.53
2019-05-16T07:14:50.591Z,13.00
2019-05-16T07:17:20.302Z,11.43
2019-05-16T07:19:50.385Z,11.70
2019-05-16T07:22:26.271Z,9.75
2019-05-16T07:24:55.721Z,10.15
2019-05-16T07:27:31.285Z,11.73
2019-05-16T07:30:01.421Z,14.23
2019-05-16T07:32:31.066Z,9.83
2019-05-16T07:35:09.721Z,13.35
2019-05-16T07:37:40.043Z,10.48
2019-05-16T07:40:23.602Z,9.95
2019-05-16T07:42:54.492Z,10.38
2019-05-16T07:45:30.891Z,10.05
2019-05-16T07:48:07.626Z,12.93
2019-05-16T07:50:37.078Z,10.48
2019-05-16T07:53:21.499Z,9.05
2019-05-16T07:56:00.073Z,11.60
2019-05-16T07:58:36.458Z,10.60
2019-05-16T08:01:13.127Z,8.88
2019-05-16T08:03:50.847Z,11.55
2019-05-16T08:06:20.689Z,14.38
2019-05-16T08:08:56.725Z,16.20
2019-05-16T08:11:26.304Z,8.18
2019-05-16T08:14:02.679Z,8.43
2019-05-16T08:16:32.197Z,10.82
2019-05-16T08:19:10.286Z,15.30
2019-05-16T08:21:45.523Z,9.43
2019-05-16T08:24:16.305Z,11.45
2019-05-16T08:26:45.892Z,11.43
2019-05-16T08:29:22.483Z,10.93
2019-05-16T08:32:02.147Z,7.42
2019-05-16T08:34:40.798Z,10.63
2019-05-16T08:37:32.779Z,8.05
2019-05-16T08:39:47.135Z,12.55
2019-05-16T08:42:16.915Z,10.28
2019-05-16T08:44:46.513Z,10.60
2019-05-16T08:50:15.414Z,9.83
2019-05-16T08:52:44.489Z,11.25
2019-05-16T08:55:26.988Z,13.18
2019-05-16T08:57:56.436Z,10.93
2019-05-16T09:00:33.741Z,11.33
2019-05-16T09:03:03.184Z,13.10
2019-05-16T09:05:45.299Z,13.35
2019-05-16T09:08:14.817Z,13.55
2019-05-16T09:10:30.559Z,12.18
2019-05-16T09:11:01.695Z,10.78
2019-05-16T09:13:22.581Z,9.83
2019-05-16T09:15:58.948Z,13.78
2019-05-16T09:18:45.889Z,12.20
2019-05-16T09:21:12.299Z,11.30
2019-05-16T09:23:41.813Z,12.25
2019-05-16T09:26:19.836Z,12.73
2019-05-16T09:28:49.094Z,14.60
2019-05-16T09:31:27.572Z,9.55
2019-05-16T09:34:03.308Z,10.60
2019-05-16T09:36:32.764Z,11.80
2019-05-16T09:39:09.113Z,15.72
2019-05-16T09:41:53.094Z,9.53
2019-05-16T09:44:10.071Z,11.57
2019-05-16T09:46:47.134Z,10.90
2019-05-16T09:49:24.391Z,10.03
2019-05-16T09:51:56.634Z,10.43
2019-05-16T09:54:32.436Z,9.63
2019-05-16T09:57:17.497Z,8.98
2019-05-16T09:59:47.297Z,6.87
2019-05-16T10:02:23.681Z,9.80
2019-05-16T10:04:53.132Z,9.15
2019-05-16T10:07:38.503Z,8.00
2019-05-16T10:10:08.471Z,8.88
2019-05-16T10:12:44.659Z,7.12
2019-05-16T10:15:17.637Z,8.35
2019-05-16T10:17:54.205Z,7.83
2019-05-16T10:20:23.725Z,7.10
2019-05-16T10:22:59.438Z,7.42
2019-05-16T10:25:37.767Z,13.50
2019-05-16T10:28:06.541Z,5.92
2019-05-16T10:30:42.442Z,7.85
2019-05-16T10:33:11.974Z,7.75
2019-05-16T10:35:48.357Z,6.15
2019-05-16T10:38:28.096Z,7.58
2019-05-16T10:41:07.174Z,7.20
2019-05-16T10:43:43.155Z,5.78
2019-05-16T10:46:12.756Z,7.65
2019-05-16T10:48:48.494Z,6.72
2019-05-16T10:51:18.009Z,8.93
2019-05-16T10:54:05.879Z,6.42
2019-05-16T10:56:40.520Z,8.23
2019-05-16T10:59:51.057Z,7.75
2019-05-16T11:01:56.369Z,8.80
2019-05-16T11:04:49.803Z,7.50
2019-05-16T11:07:03.820Z,8.13
2019-05-16T11:09:53.523Z,11.95
2019-05-16T11:12:12.953Z,8.60
2019-05-16T11:14:48.915Z,7.37
2019-05-16T11:17:19.187Z,8.55
2019-05-16T11:19:55.118Z,8.70
2019-05-16T11:22:29.521Z,10.32
2019-05-16T11:25:16.403Z,8.88
2019-05-16T11:27:34.329Z,10.95
2019-05-16T11:30:13.254Z,10.18
2019-05-16T11:32:49.549Z,8.63
2019-05-16T11:35:19.713Z,8.78
2019-05-16T11:37:57.085Z,10.58
2019-05-16T11:40:29.729Z,11.43
2019-05-16T11:43:11.390Z,11.78
2019-05-16T11:45:36.761Z,11.53
2019-05-16T11:48:12.914Z,9.78
2019-05-16T11:50:42.568Z,8.55
2019-05-16T11:53:19.213Z,8.95
2019-05-16T11:55:59.993Z,11.53
2019-05-16T11:58:39.595Z,10.30
2019-05-16T12:01:09.343Z,10.60
2019-05-16T12:03:46.881Z,8.03
2019-05-16T12:06:17.137Z,8.55
2019-05-16T12:08:46.938Z,11.93
2019-05-16T12:11:29.069Z,8.75
2019-05-16T12:14:07.175Z,7.83
2019-05-16T12:16:37.927Z,10.70
2019-05-16T12:19:14.246Z,16.52
2019-05-16T12:21:43.908Z,9.83
2019-05-16T12:24:31.505Z,11.12
2019-05-16T12:26:51.870Z,11.95
2019-05-16T12:29:28.318Z,12.70
2019-05-16T12:32:02.564Z,11.68
2019-05-16T12:34:36.863Z,11.10
2019-05-16T12:37:07.428Z,11.90
2019-05-16T12:39:43.626Z,10.23
2019-05-16T12:42:13.294Z,12.60
2019-05-16T12:44:51.211Z,13.32
2019-05-16T12:47:20.873Z,14.30
2019-05-16T12:49:57.808Z,12.55
2019-05-16T12:52:34.302Z,13.45
2019-05-16T12:55:12.202Z,12.43
2019-05-16T12:57:58.712Z,16.87
2019-05-16T13:00:32.235Z,14.65
2019-05-16T13:03:08.202Z,12.23
2019-05-16T13:05:47.570Z,16.73
2019-05-16T13:08:17.359Z,17.80
2019-05-16T13:10:54.204Z,18.17
2019-05-16T13:13:24.364Z,18.30
2019-05-16T13:16:01.098Z,15.80
2019-05-16T13:18:30.708Z,17.17
2019-05-16T13:21:07.427Z,13.62
2019-05-16T13:23:37.028Z,12.68
2019-05-16T13:26:13.323Z,15.45
2019-05-16T13:28:42.918Z,18.15
2019-05-16T13:31:12.583Z,18.15
2019-05-16T13:33:49.488Z,15.78
2019-05-16T13:36:19.348Z,15.68
2019-05-16T13:38:57.463Z,13.05
2019-05-16T13:41:27.423Z,14.95
2019-05-16T13:44:17.844Z,13.43
2019-05-16T13:46:37.050Z,13.53
2019-05-16T13:49:12.896Z,13.95
2019-05-16T13:51:43.852Z,11.33
2019-05-16T13:54:19.703Z,13.30
2019-05-16T13:56:49.296Z,12.88
2019-05-16T13:59:31.761Z,13.40
2019-05-16T14:02:08.336Z,16.48
2019-05-16T14:04:44.137Z,22.87
2019-05-16T14:07:13.731Z,21.60
2019-05-16T14:09:49.901Z,25.95
2019-05-16T14:12:26.756Z,19.23
2019-05-16T14:14:58.720Z,18.12
2019-05-16T14:17:28.330Z,18.23
2019-05-16T14:20:13.888Z,16.35
2019-05-16T14:22:36.441Z,16.10
2019-05-16T14:25:08.713Z,16.32
2019-05-16T14:27:44.633Z,16.90
2019-05-16T14:30:17.756Z,26.50
2019-05-16T14:32:54.064Z,23.52
2019-05-16T14:35:23.738Z,24.77
2019-05-16T14:38:01.057Z,21.80
2019-05-16T14:40:30.799Z,22.90
2019-05-16T14:43:08.313Z,17.25
2019-05-16T14:45:38.380Z,19.55
2019-05-16T14:48:15.063Z,21.87
2019-05-16T14:50:47.071Z,18.25
2019-05-16T14:53:22.475Z,16.90
2019-05-16T14:55:52.076Z,21.07
2019-05-16T14:58:30.832Z,18.57
2019-05-16T15:01:12.794Z,22.75
2019-05-16T15:03:48.615Z,17.97
2019-05-16T15:06:18.467Z,21.50
2019-05-16T15:08:48.183Z,19.42
2019-05-16T15:11:28.196Z,21.73
2019-05-16T15:14:06.918Z,21.02
2019-05-16T15:16:35.833Z,19.50
2019-05-16T15:19:07.979Z,21.07
2019-05-16T15:21:43.045Z,17.95
2019-05-16T15:24:12.938Z,16.35
2019-05-16T15:26:49.200Z,13.83
2019-05-16T15:29:18.878Z,15.98
2019-05-16T15:31:57.345Z,19.42
2019-05-16T15:34:30.769Z,18.45
2019-05-16T15:37:08.211Z,29.18
2019-05-16T15:39:47.924Z,20.02
2019-05-16T15:42:18.226Z,25.10
2019-05-16T15:44:47.885Z,22.00
2019-05-16T15:47:24.621Z,22.32
2019-05-16T15:49:56.650Z,23.75
2019-05-16T15:52:33.824Z,24.32
2019-05-16T15:55:03.505Z,23.60
2019-05-16T15:57:33.772Z,22.75
2019-05-16T16:00:11.004Z,21.75
2019-05-16T16:02:53.708Z,20.92
2019-05-16T16:05:23.326Z,20.25
2019-05-16T16:08:06.905Z,19.45
2019-05-16T16:13:19.738Z,17.98
2019-05-16T16:15:57.486Z,15.13
2019-05-16T16:18:27.018Z,12.68
2019-05-16T16:21:07.548Z,10.93
2019-05-16T16:23:37.267Z,9.68
2019-05-16T16:26:14.322Z,10.10
2019-05-16T16:28:44.015Z,13.70
2019-05-16T16:31:13.690Z,10.68
2019-05-16T16:33:49.558Z,13.90
2019-05-16T16:36:19.209Z,14.13
2019-05-16T16:38:56.722Z,9.65
2019-05-16T16:41:27.635Z,9.48
2019-05-16T16:44:07.712Z,12.93
2019-05-16T16:46:37.632Z,13.55
2019-05-16T16:49:13.965Z,11.80
2019-05-16T16:51:50.321Z,12.60
2019-05-16T16:54:20.071Z,12.63
2019-05-16T16:56:55.905Z,12.93
2019-05-16T16:59:28.049Z,13.40
2019-05-16T17:02:17.208Z,10.58
2019-05-16T17:04:50.827Z,13.65
2019-05-16T17:07:27.242Z,13.48
2019-05-16T17:09:56.431Z,12.80
2019-05-16T17:12:33.017Z,14.15
2019-05-16T17:15:09.323Z,18.42
2019-05-16T17:17:46.633Z,24.72
2019-05-16T17:20:18.411Z,17.27
2019-05-16T17:22:57.166Z,17.60
2019-05-16T17:25:32.928Z,20.40
2019-05-16T17:28:03.002Z,16.62
2019-05-16T17:30:39.819Z,16.20
2019-05-16T17:33:09.480Z,21.87
2019-05-16T17:35:40.711Z,16.07
2019-05-16T17:38:17.275Z,14.73
2019-05-16T17:40:47.128Z,16.73
2019-05-16T17:43:16.829Z,15.93
2019-05-16T17:45:53.184Z,19.32
2019-05-16T17:48:30.663Z,20.50
2019-05-16T17:51:06.751Z,16.25
2019-05-16T17:53:45.366Z,18.85
2019-05-16T17:56:22.142Z,18.80
2019-05-16T17:58:58.934Z,26.27
2019-05-16T18:01:35.217Z,25.15
2019-05-16T18:04:18.323Z,20.97
2019-05-16T18:06:48.080Z,22.40
2019-05-16T18:09:24.852Z,21.73
2019-05-16T18:11:54.552Z,20.25
2019-05-16T18:14:30.671Z,21.52
2019-05-16T18:17:02.258Z,18.57
2019-05-16T18:19:38.659Z,21.17
2019-05-16T18:22:08.366Z,19.20
2019-05-16T18:24:51.336Z,17.98
2019-05-16T18:27:20.941Z,20.25
2019-05-16T18:29:57.025Z,25.72
2019-05-16T18:32:26.752Z,18.02
2019-05-16T18:35:02.947Z,19.20
2019-05-16T18:37:33.419Z,22.58
2019-05-16T18:40:09.821Z,19.73
2019-05-16T18:42:39.423Z,20.10
2019-05-16T18:45:16.497Z,19.82
2019-05-16T18:47:52.597Z,16.90
2019-05-16T18:50:22.955Z,19.48
2019-05-16T18:52:59.499Z,50.58
2019-05-16T18:55:37.054Z,26.02
2019-05-16T18:58:08.709Z,22.62
2019-05-16T19:00:46.647Z,24.60
2019-05-16T19:03:22.764Z,23.32
2019-05-16T19:05:59.252Z,25.72
2019-05-16T19:08:28.945Z,23.38
2019-05-16T19:11:07.461Z,25.48
2019-05-16T19:13:36.999Z,23.95
2019-05-16T19:16:20.295Z,24.65
2019-05-16T19:18:49.892Z,25.77
2019-05-16T19:21:19.554Z,28.00
2019-05-16T19:23:56.342Z,23.85
2019-05-16T19:26:32.746Z,22.98
2019-05-16T19:29:09.105Z,20.40
2019-05-16T19:31:50.239Z,20.17
2019-05-16T19:34:18.303Z,20.50
2019-05-16T19:36:54.649Z,27.77
2019-05-16T19:39:26.048Z,24.65
2019-05-16T19:42:01.877Z,21.37
2019-05-16T19:44:38.520Z,22.77
2019-05-16T19:47:08.136Z,27.27
2019-05-16T19:49:46.452Z,20.88
2019-05-16T19:52:23.153Z,19.82
2019-05-16T19:54:59.135Z,21.70
2019-05-16T19:57:37.749Z,21.50
2019-05-16T20:00:10.074Z,20.60
2019-05-16T20:02:47.331Z,20.20
2019-05-16T20:05:30.195Z,24.05
2019-05-16T20:07:59.652Z,20.80
2019-05-16T20:10:42.089Z,21.15
2019-05-16T20:13:11.636Z,26.35
2019-05-16T20:15:41.680Z,20.45
2019-05-16T20:18:19.440Z,22.93
2019-05-16T20:20:49.164Z,21.27
2019-05-16T20:23:27.709Z,22.48
2019-05-16T20:25:57.254Z,21.12
2019-05-16T20:28:33.901Z,19.25
2019-05-16T20:31:13.166Z,21.42
2019-05-16T20:33:42.627Z,24.55
2019-05-16T20:36:19.141Z,21.80
2019-05-16T20:38:48.744Z,21.52
2019-05-16T20:41:24.809Z,25.85
2019-05-16T20:43:57.064Z,21.85
2019-05-16T20:46:33.605Z,22.37
2019-05-16T20:49:03.219Z,25.43
2019-05-16T20:51:39.362Z,23.42
2019-05-16T20:54:08.895Z,22.77
2019-05-16T20:56:46.484Z,22.93
2019-05-16T20:59:17.190Z,22.95
2019-05-16T21:01:52.990Z,25.27
2019-05-16T21:04:29.562Z,26.57
2019-05-16T21:07:12.471Z,23.50
2019-05-16T21:09:48.206Z,23.07
2019-05-16T21:12:26.484Z,24.00
2019-05-16T21:15:02.567Z,26.50
2019-05-16T21:17:32.097Z,23.90
2019-05-16T21:20:08.701Z,22.85
2019-05-16T21:22:38.164Z,20.62
2019-05-16T21:25:16.891Z,21.62
2019-05-16T21:27:46.766Z,21.87
2019-05-16T21:30:23.649Z,22.73
2019-05-16T21:32:53.190Z,23.35
2019-05-16T21:35:30.821Z,21.27
2019-05-16T21:38:00.348Z,25.08
2019-05-16T21:40:37.162Z,20.77
2019-05-16T21:43:07.485Z,26.10
2019-05-16T21:45:43.418Z,26.80
2019-05-16T21:48:12.877Z,26.30
2019-05-16T21:50:49.686Z,25.10
2019-05-16T21:53:19.291Z,22.48
2019-05-16T21:55:56.373Z,21.15
2019-05-16T21:58:26.747Z,25.37
2019-05-16T22:01:06.622Z,20.00
2019-05-16T22:03:36.785Z,19.92
2019-05-16T22:06:19.496Z,22.40
2019-05-16T22:09:02.476Z,22.75
2019-05-16T22:11:46.530Z,24.15
2019-05-16T22:14:18.643Z,21.80
2019-05-16T22:16:56.834Z,23.52
2019-05-16T22:19:27.053Z,23.98
2019-05-16T22:22:02.933Z,24.82
2019-05-16T22:24:39.466Z,22.85
2019-05-16T22:27:08.997Z,25.30
2019-05-16T22:29:45.075Z,24.45
2019-05-16T22:32:16.455Z,23.57
2019-05-16T22:34:52.080Z,21.97
2019-05-16T22:37:21.674Z,24.18
2019-05-16T22:39:59.747Z,25.08
2019-05-16T22:42:28.708Z,24.10
2019-05-16T22:45:08.510Z,20.43
2019-05-16T22:47:37.292Z,20.82
2019-05-16T22:50:17.681Z,23.62
2019-05-16T22:52:47.463Z,24.85
2019-05-16T22:55:18.019Z,23.92
2019-05-16T22:57:56.452Z,22.62
2019-05-16T23:00:34.488Z,21.52
2019-05-16T23:03:04.079Z,19.77
2019-05-16T23:05:40.046Z,22.55
2019-05-16T23:08:16.512Z,22.27
2019-05-16T23:10:58.568Z,23.62
2019-05-16T23:13:28.087Z,26.57
2019-05-16T23:16:06.551Z,27.10
2019-05-16T23:18:37.510Z,23.22
2019-05-16T23:21:13.619Z,24.32
2019-05-16T23:23:43.076Z,22.52
2019-05-16T23:26:19.607Z,23.92
2019-05-16T23:28:49.063Z,21.35
2019-05-16T23:31:27.159Z,21.90
2019-05-16T23:33:56.688Z,20.32
2019-05-16T23:36:33.462Z,18.45
2019-05-16T23:39:03.151Z,23.15
2019-05-16T23:41:39.824Z,22.70
2019-05-16T23:44:09.369Z,20.40
2019-05-16T23:46:38.845Z,22.87
2019-05-16T23:49:16.817Z,20.08
2019-05-16T23:51:53.119Z,20.10
2019-05-16T23:54:22.602Z,17.67
2019-05-16T23:56:52.060Z,20.57
2019-05-16T23:59:28.111Z,17.17
